createdAt,value
2022-08-05T00:01:28.059Z,98570.06
2022-08-05T00:03:57.109Z,98563.91
2022-08-05T00:06:32.228Z,98565.72
2022-08-05T00:11:20.622Z,98559.56
2022-08-05T00:13:55.697Z,98568.38
2022-08-05T00:16:35.431Z,98556.91
2022-08-05T00:19:04.109Z,98559.56
2022-08-05T00:21:30.838Z,98552.66
2022-08-05T00:24:10.677Z,98549.88
2022-08-05T00:26:38.553Z,98552.81
2022-08-05T00:29:05.104Z,98558.72
2022-08-05T00:31:54.008Z,98561.41
2022-08-05T00:34:55.704Z,98556.06
2022-08-05T00:37:09.902Z,98555.22
2022-08-05T00:39:57.217Z,98547.22
2022-08-05T00:42:37.156Z,98557.00
2022-08-05T00:45:08.433Z,98552.53
2022-08-05T00:47:56.985Z,98547.34
2022-08-05T00:50:25.229Z,98542.84
2022-08-05T00:52:53.335Z,98544.56
2022-08-05T00:55:21.660Z,98549.03
2022-08-05T00:57:57.854Z,98542.00
2022-08-05T01:00:30.404Z,98552.66
2022-08-05T01:02:59.803Z,98543.81
2022-08-05T01:08:42.277Z,98532.31
2022-08-05T01:10:52.322Z,98540.31
2022-08-05T01:13:57.494Z,98529.94
2022-08-05T01:16:45.041Z,98534.16
2022-08-05T01:19:46.358Z,98532.31
2022-08-05T01:22:31.817Z,98523.63
2022-08-05T01:25:16.952Z,98523.63
2022-08-05T01:28:06.288Z,98524.59
2022-08-05T01:30:39.815Z,98525.47
2022-08-05T01:33:21.736Z,98522.81
2022-08-05T01:35:55.431Z,98524.59
2022-08-05T01:38:29.322Z,98523.63
2022-08-05T01:41:01.652Z,98512.97
2022-08-05T01:43:29.808Z,98513.94
2022-08-05T01:45:57.669Z,98508.09
2022-08-05T01:48:31.945Z,98511.28
2022-08-05T01:51:00.059Z,98500.63
2022-08-05T01:53:57.199Z,98500.94
2022-08-05T01:58:29.496Z,98509.47
2022-08-05T01:59:16.672Z,98509.47
2022-08-05T02:01:45.205Z,98495.59
2022-08-05T02:04:16.569Z,98498.97
2022-08-05T02:06:45.025Z,98501.50
2022-08-05T02:09:12.003Z,98500.78
2022-08-05T02:11:52.536Z,98478.91
2022-08-05T02:18:30.855Z,98492.78
2022-08-05T02:20:43.940Z,98483.97
2022-08-05T02:23:14.918Z,98478.63
2022-08-05T02:25:50.012Z,98481.31
2022-08-05T02:28:28.903Z,98478.25
2022-08-05T02:31:22.811Z,98481.31
2022-08-05T02:33:58.816Z,98478.63
2022-08-05T02:36:31.338Z,98476.97
2022-08-05T02:39:00.207Z,98478.25
2022-08-05T02:41:28.924Z,98484.78
2022-08-05T02:44:13.307Z,98483.41
2022-08-05T02:46:43.863Z,98480.75
2022-08-05T02:49:21.861Z,98476.97
2022-08-05T02:52:03.532Z,98485.78
2022-08-05T02:54:35.999Z,98484.94
2022-08-05T02:57:10.304Z,98477.94
2022-08-05T02:59:54.208Z,98484.13
2022-08-05T03:02:24.363Z,98482.44
2022-08-05T03:04:56.301Z,98493.91
2022-08-05T03:07:40.593Z,98488.59
2022-08-05T03:10:11.151Z,98480.59
2022-08-05T03:12:40.341Z,98481.56
2022-08-05T03:15:10.187Z,98470.09
2022-08-05T03:17:41.614Z,98474.44
2022-08-05T03:20:09.236Z,98481.56
2022-08-05T03:22:36.979Z,98478.09
2022-08-05T03:25:11.777Z,98468.41
2022-08-05T03:28:00.268Z,98461.28
2022-08-05T03:30:33.637Z,98476.41
2022-08-05T03:33:06.399Z,98480.75
2022-08-05T03:35:41.196Z,98479.06
2022-08-05T03:38:14.287Z,98472.91
2022-08-05T03:40:47.213Z,98479.06
2022-08-05T03:44:08.699Z,98472.06
2022-08-05T03:46:03.327Z,98474.72
2022-08-05T03:48:30.860Z,98463.50
2022-08-05T03:52:38.911Z,98468.56
2022-08-05T03:55:50.065Z,98473.88
2022-08-05T03:57:16.009Z,98480.19
2022-08-05T04:00:04.180Z,98474.88
2022-08-05T04:02:52.322Z,98475.84
2022-08-05T04:05:33.134Z,98482.03
2022-08-05T04:08:22.471Z,98457.22
2022-08-05T04:10:53.375Z,98476.69
2022-08-05T04:13:21.626Z,98476.69
2022-08-05T04:16:02.830Z,98455.81
2022-08-05T04:18:30.364Z,98468.72
2022-08-05T04:20:57.657Z,98466.16
2022-08-05T04:24:04.738Z,98468.72
2022-08-05T04:26:15.392Z,98458.19
2022-08-05T04:28:50.794Z,98458.19
2022-08-05T04:33:54.829Z,98466.16
2022-08-05T04:36:46.006Z,98467.16
2022-08-05T04:39:07.865Z,98471.66
2022-08-05T04:41:37.873Z,98469.81
2022-08-05T04:44:08.824Z,98468.97
2022-08-05T04:46:37.596Z,98471.50
2022-08-05T04:49:06.054Z,98465.50
2022-08-05T04:51:39.095Z,98468.16
2022-08-05T04:54:05.734Z,98469.97
2022-08-05T04:58:57.623Z,98465.50
2022-08-05T05:02:05.532Z,98468.97
2022-08-05T05:04:12.121Z,98459.31
2022-08-05T05:06:44.820Z,98461.97
2022-08-05T05:09:17.230Z,98459.31
2022-08-05T05:11:53.035Z,98461.97
2022-08-05T05:14:31.262Z,98464.63
2022-08-05T05:17:02.048Z,98455.09
2022-08-05T05:19:37.162Z,98449.38
2022-08-05T05:22:23.011Z,98461.00
2022-08-05T05:24:57.252Z,98467.16
2022-08-05T05:27:44.750Z,98468.97
2022-08-05T05:30:29.817Z,98463.66
2022-08-05T05:33:08.778Z,98469.81
2022-08-05T05:35:43.920Z,98463.97
2022-08-05T05:38:12.921Z,98468.16
2022-08-05T05:40:46.631Z,98455.41
2022-08-05T05:43:16.149Z,98475.84
2022-08-05T05:45:49.236Z,98457.22
2022-08-05T05:48:16.167Z,98471.38
2022-08-05T05:50:45.568Z,98474.88
2022-08-05T05:53:22.308Z,98480.34
2022-08-05T05:55:51.728Z,98477.53
2022-08-05T05:58:31.976Z,98480.19
2022-08-05T06:01:12.798Z,98475.84
2022-08-05T06:04:01.160Z,98474.88
2022-08-05T06:08:59.076Z,98472.19
2022-08-05T06:11:26.174Z,98463.38
2022-08-05T06:16:28.883Z,98479.38
2022-08-05T06:19:00.195Z,98478.34
2022-08-05T06:21:35.696Z,98483.69
2022-08-05T06:24:05.902Z,98478.34
2022-08-05T06:26:34.004Z,98481.03
2022-08-05T06:29:06.466Z,98474.88
2022-08-05T06:34:10.716Z,98470.38
2022-08-05T06:39:04.086Z,98450.91
2022-08-05T06:41:30.789Z,98469.38
2022-08-05T06:44:01.378Z,98470.25
2022-08-05T06:46:30.086Z,98474.56
2022-08-05T06:48:59.224Z,98468.41
2022-08-05T06:51:30.183Z,98471.06
2022-08-05T06:53:58.771Z,98470.25
2022-08-05T06:56:26.285Z,98467.44
2022-08-05T06:58:53.964Z,98421.06
2022-08-05T07:01:21.117Z,98450.50
2022-08-05T07:03:49.973Z,98458.72
2022-08-05T07:06:17.383Z,98453.25
2022-08-05T07:08:51.812Z,98455.81
2022-08-05T07:11:22.620Z,98455.81
2022-08-05T07:14:20.630Z,98451.44
2022-08-05T07:18:00.418Z,98446.28
2022-08-05T07:20:32.460Z,98454.13
2022-08-05T07:22:38.389Z,98457.59
2022-08-05T07:25:54.908Z,98456.63
2022-08-05T07:27:57.637Z,98452.28
2022-08-05T07:30:38.579Z,98461.13
2022-08-05T07:33:10.423Z,98461.13
2022-08-05T07:36:03.792Z,98460.97
2022-08-05T07:38:33.532Z,98466.31
2022-08-05T07:41:34.999Z,98467.13
2022-08-05T07:43:59.354Z,98466.31
2022-08-05T07:46:28.265Z,98457.47
2022-08-05T07:49:02.030Z,98467.13
2022-08-05T07:51:37.581Z,98456.78
2022-08-05T07:54:08.561Z,98446.00
2022-08-05T07:56:59.931Z,98439.69
2022-08-05T07:59:38.244Z,98455.50
2022-08-05T08:02:16.934Z,98453.81
2022-08-05T08:04:48.759Z,98457.34
2022-08-05T08:07:17.709Z,98451.03
2022-08-05T08:09:44.962Z,98454.66
2022-08-05T08:12:33.446Z,98453.81
2022-08-05T08:15:03.533Z,98447.50
2022-08-05T08:17:32.076Z,98455.50
2022-08-05T08:20:21.925Z,98452.00
2022-08-05T08:23:00.155Z,98460.81
2022-08-05T08:26:00.537Z,98463.50
2022-08-05T08:28:18.868Z,98456.34
2022-08-05T08:31:02.730Z,98462.50
2022-08-05T08:33:35.944Z,98462.50
2022-08-05T08:36:38.736Z,98464.19
2022-08-05T08:38:55.563Z,98458.88
2022-08-05T08:41:26.282Z,98458.00
2022-08-05T08:45:23.704Z,98460.66
2022-08-05T08:47:02.809Z,98455.34
2022-08-05T08:50:05.894Z,98462.34
2022-08-05T08:52:25.208Z,98468.53
2022-08-05T08:54:53.471Z,98459.69
2022-08-05T08:57:20.356Z,98459.69
2022-08-05T08:59:50.575Z,98461.53
2022-08-05T09:02:22.024Z,98457.03
2022-08-05T09:07:28.994Z,98455.34
2022-08-05T09:09:56.303Z,98465.88
2022-08-05T09:12:27.710Z,98454.94
2022-08-05T09:15:03.925Z,98462.34
2022-08-05T09:17:43.128Z,98459.69
2022-08-05T09:20:36.458Z,98458.72
2022-08-05T09:23:09.526Z,98444.56
2022-08-05T09:26:01.098Z,98447.22
2022-08-05T09:28:32.629Z,98446.38
2022-08-05T09:31:23.011Z,98444.56
2022-08-05T09:33:59.523Z,98445.41
2022-08-05T09:36:39.104Z,98442.72
2022-08-05T09:39:24.570Z,98432.06
2022-08-05T09:42:08.523Z,98435.59
2022-08-05T09:44:39.085Z,98437.41
2022-08-05T09:47:15.682Z,98432.06
2022-08-05T09:50:01.450Z,98430.28
2022-08-05T09:52:31.205Z,98426.75
2022-08-05T09:54:59.752Z,98421.41
2022-08-05T09:57:39.888Z,98422.28
2022-08-05T10:00:13.334Z,98423.09
2022-08-05T10:02:43.588Z,98415.25
2022-08-05T10:05:14.497Z,98419.63
2022-08-05T10:08:10.961Z,98415.94
2022-08-05T10:10:50.401Z,98413.28
2022-08-05T10:13:47.222Z,98418.59
2022-08-05T10:16:41.738Z,98422.94
2022-08-05T10:19:23.594Z,98412.44
2022-08-05T10:21:59.161Z,98411.47
2022-08-05T10:24:26.995Z,98410.59
2022-08-05T10:26:56.222Z,98412.44
2022-08-05T10:30:06.026Z,98417.63
2022-08-05T10:32:52.054Z,98409.63
2022-08-05T10:35:03.456Z,98410.50
2022-08-05T10:37:37.166Z,98406.03
2022-08-05T10:40:28.107Z,98405.16
2022-08-05T10:43:01.372Z,98390.97
2022-08-05T10:45:40.089Z,98396.22
2022-08-05T10:48:36.053Z,98394.38
2022-08-05T10:51:21.942Z,98395.22
2022-08-05T10:53:58.586Z,98390.91
2022-08-05T10:56:30.547Z,98384.72
2022-08-05T10:59:12.154Z,98382.91
2022-08-05T11:01:54.527Z,98366.91
2022-08-05T11:04:31.801Z,98382.91
2022-08-05T11:07:06.436Z,98392.69
2022-08-05T11:09:47.552Z,98388.06
2022-08-05T11:12:26.667Z,98380.91
2022-08-05T11:15:11.558Z,98366.75
2022-08-05T11:18:09.656Z,98377.41
2022-08-05T11:20:44.663Z,98365.91
2022-08-05T11:23:33.264Z,98367.59
2022-08-05T11:26:32.679Z,98371.94
2022-08-05T11:29:12.146Z,98364.94
2022-08-05T11:31:57.769Z,98371.94
2022-08-05T11:34:39.059Z,98372.75
2022-08-05T11:38:28.001Z,98364.78
2022-08-05T11:40:00.296Z,98365.63
2022-08-05T11:42:40.378Z,98356.25
2022-08-05T11:45:14.219Z,98363.78
2022-08-05T11:47:54.444Z,98363.78
2022-08-05T11:50:21.843Z,98367.31
2022-08-05T11:52:50.247Z,98364.66
2022-08-05T11:55:18.683Z,98356.66
2022-08-05T11:58:09.328Z,98362.81
2022-08-05T12:00:38.655Z,98347.41
2022-08-05T12:03:29.349Z,98355.66
2022-08-05T12:06:06.443Z,98355.78
2022-08-05T12:08:50.884Z,98354.81
2022-08-05T12:11:22.756Z,98353.84
2022-08-05T12:14:04.107Z,98353.84
2022-08-05T12:16:39.006Z,98348.50
2022-08-05T12:19:08.330Z,98347.69
2022-08-05T12:21:42.455Z,98345.84
2022-08-05T12:24:17.676Z,98344.00
2022-08-05T12:26:45.973Z,98337.84
2022-08-05T12:29:16.374Z,98344.84
2022-08-05T12:31:53.476Z,98339.53
2022-08-05T12:34:25.827Z,98337.69
2022-08-05T12:36:53.573Z,98325.13
2022-08-05T12:39:20.989Z,98335.88
2022-08-05T12:41:48.693Z,98337.69
2022-08-05T12:44:28.712Z,98330.56
2022-08-05T12:47:00.222Z,98334.03
2022-08-05T12:50:03.698Z,98338.41
2022-08-05T12:52:33.935Z,98333.06
2022-08-05T12:55:28.376Z,98338.41
2022-08-05T12:58:49.880Z,98315.28
2022-08-05T13:02:02.673Z,98336.56
2022-08-05T13:03:43.165Z,98339.53
2022-08-05T13:06:14.683Z,98336.56
2022-08-05T13:08:51.479Z,98340.06
2022-08-05T13:11:47.045Z,98329.41
2022-08-05T13:14:11.120Z,98332.91
2022-08-05T13:16:59.566Z,98334.59
2022-08-05T13:19:52.003Z,98315.13
2022-08-05T13:22:29.138Z,98316.91
2022-08-05T13:24:57.970Z,98314.97
2022-08-05T13:27:37.685Z,98304.31
2022-08-05T13:30:34.757Z,98306.09
2022-08-05T13:32:57.432Z,98305.13
2022-08-05T13:35:42.980Z,98301.63
2022-08-05T13:38:28.657Z,98300.66
2022-08-05T13:41:00.671Z,98298.13
2022-08-05T13:43:44.736Z,98302.47
2022-08-05T13:46:14.421Z,98305.81
2022-08-05T13:48:57.850Z,98305.81
2022-08-05T13:51:30.100Z,98297.00
2022-08-05T13:54:11.812Z,98301.31
2022-08-05T13:56:45.597Z,98298.66
2022-08-05T13:59:21.399Z,98300.50
2022-08-05T14:01:58.524Z,98289.84
2022-08-05T14:04:56.404Z,98284.50
2022-08-05T14:08:00.560Z,98285.34
2022-08-05T14:10:28.748Z,98280.00
2022-08-05T14:12:58.282Z,98278.19
2022-08-05T14:16:08.319Z,98279.03
2022-08-05T14:18:14.652Z,98278.19
2022-08-05T14:20:47.115Z,98279.88
2022-08-05T14:23:19.171Z,98269.22
2022-08-05T14:25:53.813Z,98278.03
2022-08-05T14:28:26.732Z,98275.38
2022-08-05T14:30:54.867Z,98273.53
2022-08-05T14:33:22.635Z,98277.06
2022-08-05T14:35:51.863Z,98267.38
2022-08-05T14:38:27.892Z,98279.72
2022-08-05T14:40:59.604Z,98273.41
2022-08-05T14:44:01.905Z,98266.25
2022-08-05T14:46:13.060Z,98270.75
2022-08-05T14:48:39.643Z,98266.25
2022-08-05T14:51:06.301Z,98273.41
2022-08-05T14:53:44.417Z,98258.84
2022-08-05T14:56:13.315Z,98267.09
2022-08-05T14:58:47.871Z,98267.09
2022-08-05T15:01:24.331Z,98267.91
2022-08-05T15:04:11.582Z,98267.91
2022-08-05T15:06:39.120Z,98262.75
2022-08-05T15:11:51.539Z,98265.25
2022-08-05T15:14:34.595Z,98260.75
2022-08-05T15:17:14.600Z,98256.28
2022-08-05T15:19:55.496Z,98257.97
2022-08-05T15:22:22.227Z,98254.44
2022-08-05T15:24:54.365Z,98248.28
2022-08-05T15:27:20.880Z,98248.28
2022-08-05T15:29:47.742Z,98246.44
2022-08-05T15:32:16.489Z,98248.13
2022-08-05T15:34:44.364Z,98240.13
2022-08-05T15:37:15.573Z,98248.94
2022-08-05T15:40:58.256Z,98245.47
2022-08-05T15:42:56.189Z,98242.78
2022-08-05T15:45:27.119Z,98243.63
2022-08-05T15:48:05.575Z,98235.63
2022-08-05T15:50:33.424Z,98236.63
2022-08-05T15:53:04.145Z,98237.31
2022-08-05T15:56:01.925Z,98232.97
2022-08-05T15:58:19.061Z,98234.63
2022-08-05T16:00:56.988Z,98234.63
2022-08-05T16:03:32.741Z,98239.97
2022-08-05T16:06:00.843Z,98224.47
2022-08-05T16:08:30.579Z,98235.63
2022-08-05T16:10:58.194Z,98235.50
2022-08-05T16:13:34.071Z,98234.63
2022-08-05T16:16:03.324Z,98239.84
2022-08-05T16:18:30.652Z,98234.50
2022-08-05T16:20:58.546Z,98233.66
2022-08-05T16:23:25.452Z,98233.66
2022-08-05T16:26:06.706Z,98234.50
2022-08-05T16:28:36.114Z,98234.50
2022-08-05T16:31:08.275Z,98220.25
2022-08-05T16:33:41.505Z,98238.81
2022-08-05T16:36:09.279Z,98235.34
2022-08-05T16:38:35.836Z,98233.50
2022-08-05T16:43:34.080Z,98237.19
2022-08-05T16:46:12.927Z,98236.16
2022-08-05T16:48:49.581Z,98229.84
2022-08-05T16:51:16.327Z,98233.38
2022-08-05T16:54:04.852Z,98237.84
2022-08-05T16:56:31.155Z,98232.50
2022-08-05T17:01:21.429Z,98228.03
2022-08-05T17:03:51.974Z,98234.19
2022-08-05T17:06:19.341Z,98228.03
2022-08-05T17:08:52.449Z,98234.19
2022-08-05T17:11:25.459Z,98235.88
2022-08-05T17:14:00.379Z,98241.22
2022-08-05T17:16:38.123Z,98237.56
2022-08-05T17:19:07.878Z,98239.38
2022-08-05T17:21:37.678Z,98235.88
2022-08-05T17:24:28.255Z,98236.69
2022-08-05T17:26:57.761Z,98240.50
2022-08-05T17:29:33.250Z,98247.38
2022-08-05T17:32:08.646Z,98236.69
2022-08-05T17:34:39.244Z,98236.16
2022-08-05T17:37:35.903Z,98243.72
2022-08-05T17:39:55.208Z,98223.44
2022-08-05T17:42:28.913Z,98238.38
2022-08-05T17:44:58.999Z,98241.03
2022-08-05T17:47:26.863Z,98249.03
2022-08-05T17:50:04.016Z,98239.69
2022-08-05T17:52:53.296Z,98243.72
2022-08-05T17:55:22.591Z,98241.03
2022-08-05T17:57:54.248Z,98241.91
2022-08-05T18:00:20.900Z,98241.91
2022-08-05T18:02:55.365Z,98244.56
2022-08-05T18:05:22.124Z,98241.91
2022-08-05T18:07:49.133Z,98233.50
2022-08-05T18:10:21.095Z,98240.06
2022-08-05T18:12:48.617Z,98248.06
2022-08-05T18:15:15.194Z,98247.22
2022-08-05T18:18:00.133Z,98250.72
2022-08-05T18:20:32.520Z,98249.91
2022-08-05T18:23:00.380Z,98252.41
2022-08-05T18:25:33.003Z,98258.72
2022-08-05T18:28:01.657Z,98260.41
2022-08-05T18:30:33.062Z,98264.88
2022-08-05T18:33:00.964Z,98262.22
2022-08-05T18:36:01.006Z,98258.56
2022-08-05T18:38:16.492Z,98258.56
2022-08-05T18:41:56.810Z,98260.31
2022-08-05T18:43:38.266Z,98273.72
2022-08-05T18:46:10.255Z,98255.97
2022-08-05T18:48:41.671Z,98264.88
2022-08-05T18:52:06.917Z,98273.72
2022-08-05T18:54:14.585Z,98268.69
2022-08-05T18:56:41.706Z,98272.88
2022-08-05T18:59:42.942Z,98272.75
2022-08-05T19:02:11.097Z,98276.41
2022-08-05T19:05:02.964Z,98279.88
2022-08-05T19:07:46.021Z,98279.06
2022-08-05T19:10:17.198Z,98278.06
2022-08-05T19:12:46.245Z,98286.06
2022-08-05T19:15:56.798Z,98282.56
2022-08-05T19:18:09.109Z,98287.88
2022-08-05T19:20:37.069Z,98282.56
2022-08-05T19:23:08.539Z,98288.75
2022-08-05T19:26:01.021Z,98286.91
2022-08-05T19:28:28.538Z,98286.91
2022-08-05T19:30:55.873Z,98290.41
2022-08-05T19:33:35.923Z,98289.88
2022-08-05T19:36:06.350Z,98288.75
2022-08-05T19:38:35.575Z,98287.50
2022-08-05T19:41:06.714Z,98299.41
2022-08-05T19:44:05.995Z,98301.22
2022-08-05T19:46:30.394Z,98295.75
2022-08-05T19:49:03.287Z,98298.41
2022-08-05T19:52:04.277Z,98301.09
2022-08-05T19:54:29.476Z,98304.72
2022-08-05T19:56:59.777Z,98297.56
2022-08-05T19:59:54.949Z,98297.56
2022-08-05T20:02:23.048Z,98304.56
2022-08-05T20:07:15.110Z,98290.53
2022-08-05T20:09:54.433Z,98278.44
2022-08-05T20:12:23.739Z,98302.88
2022-08-05T20:14:52.291Z,98301.09
2022-08-05T20:19:41.407Z,98299.41
2022-08-05T20:22:09.738Z,98299.41
2022-08-05T20:24:36.388Z,98292.22
2022-08-05T20:27:04.716Z,98297.88
2022-08-05T20:29:38.417Z,98304.72
2022-08-05T20:32:06.563Z,98301.09
2022-08-05T20:34:33.211Z,98295.75
2022-08-05T20:37:00.835Z,98299.25
2022-08-05T20:39:36.601Z,98301.09
2022-08-05T20:42:04.551Z,98287.66
2022-08-05T20:44:33.043Z,98297.56
2022-08-05T20:47:06.699Z,98294.91
2022-08-05T20:49:39.521Z,98292.22
2022-08-05T20:52:07.568Z,98294.91
2022-08-05T20:54:57.641Z,98285.00
2022-08-05T20:57:24.578Z,98294.91
2022-08-05T21:00:40.962Z,98298.41
2022-08-05T21:03:01.246Z,98294.91
2022-08-05T21:05:38.118Z,98298.53
2022-08-05T21:08:14.933Z,98298.53
2022-08-05T21:10:48.481Z,98291.41
2022-08-05T21:13:26.106Z,98295.75
2022-08-05T21:15:54.356Z,98302.06
2022-08-05T21:18:23.347Z,98299.41
2022-08-05T21:20:50.250Z,98303.88
2022-08-05T21:23:16.809Z,98301.09
2022-08-05T21:25:44.791Z,98299.41
2022-08-05T21:28:12.040Z,98286.13
2022-08-05T21:30:39.673Z,98304.72
2022-08-05T21:33:22.117Z,98302.06
2022-08-05T21:35:58.374Z,98303.88
2022-08-05T21:38:27.537Z,98304.03
2022-08-05T21:40:54.334Z,98297.47
2022-08-05T21:43:24.687Z,98313.56
2022-08-05T21:45:57.374Z,98309.22
2022-08-05T21:48:28.021Z,98307.41
2022-08-05T21:50:55.184Z,98292.44
2022-08-05T21:53:27.247Z,98304.72
2022-08-05T21:56:04.781Z,98304.84
2022-08-05T21:58:42.120Z,98306.53
2022-08-05T22:01:10.821Z,98312.03
2022-08-05T22:03:52.836Z,98309.22
2022-08-05T22:06:22.346Z,98313.56
2022-08-05T22:08:51.814Z,98306.53
2022-08-05T22:11:34.740Z,98305.56
2022-08-05T22:14:35.141Z,98305.72
2022-08-05T22:16:56.081Z,98310.06
2022-08-05T22:20:00.849Z,98306.53
2022-08-05T22:22:11.220Z,98309.22
2022-08-05T22:24:57.714Z,98307.53
2022-08-05T22:28:09.184Z,98308.38
2022-08-05T22:30:34.863Z,98302.19
2022-08-05T22:33:03.257Z,98309.38
2022-08-05T22:35:30.993Z,98306.53
2022-08-05T22:38:05.930Z,98305.72
2022-08-05T22:40:36.568Z,98312.72
2022-08-05T22:43:05.145Z,98303.88
2022-08-05T22:45:31.837Z,98303.88
2022-08-05T22:47:59.417Z,98305.72
2022-08-05T22:50:26.810Z,98301.22
2022-08-05T22:52:55.416Z,98298.84
2022-08-05T22:55:23.731Z,98304.84
2022-08-05T22:57:52.316Z,98302.19
2022-08-05T23:00:21.524Z,98306.53
2022-08-05T23:02:49.860Z,98300.38
2022-08-05T23:05:17.696Z,98297.72
2022-08-05T23:07:49.612Z,98299.53
2022-08-05T23:10:19.713Z,98301.22
2022-08-05T23:12:51.686Z,98293.81
2022-08-05T23:15:27.148Z,98306.53
2022-08-05T23:18:00.433Z,98298.69
2022-08-05T23:20:28.528Z,98303.88
2022-08-05T23:22:56.251Z,98305.72
2022-08-05T23:25:52.294Z,98300.38
2022-08-05T23:28:11.474Z,98296.19
2022-08-05T23:30:40.280Z,98297.72
2022-08-05T23:33:22.245Z,98297.72
2022-08-05T23:35:56.208Z,98285.38
2022-08-05T23:38:24.255Z,98293.53
2022-08-05T23:40:52.693Z,98295.22
2022-08-05T23:43:24.857Z,98284.53
2022-08-05T23:46:03.920Z,98284.38
2022-08-05T23:48:30.493Z,98287.06
2022-08-05T23:50:57.072Z,98282.72
2022-08-05T23:53:28.346Z,98285.38
2022-08-05T23:56:12.161Z,98281.03
2022-08-05T23:58:38.821Z,98276.56
